Time;durP1;ratioP1;P1;durP2;ratioP2;P2;SDS_P1;SDS_P2;PMS_P1;PMS_P2;Temp;Humidity;BMP_temperature;BMP_pressure;BME280_temperature;BME280_humidity;BME280_pressure;Samples;Min_cycle;Max_cycle;Signal;HPM_P1;HPM_P2
2023/05/03 00:02:15;;;;;;;12.18;5.65;;;;;;;12.52;70.46;100436.69;5053440;28;20443;-85
2023/05/03 00:04:40;;;;;;;15.05;6.13;;;;;;;12.53;70.91;100443.59;5052539;28;20096;-85
2023/05/03 00:07:06;;;;;;;11.07;5.38;;;;;;;12.52;70.53;100435.84;5053606;28;20025;-85
2023/05/03 00:09:34;;;;;;;12.93;5.57;;;;;;;12.55;70.63;100440.91;5052229;28;20091;-85
2023/05/03 00:12:00;;;;;;;10.55;4.63;;;;;;;12.34;70.75;100421.75;5052238;28;20155;-85
2023/05/03 00:14:26;;;;;;;10.27;4.97;;;;;;;12.43;70.87;100435.31;5051810;28;20544;-85
2023/05/03 00:16:51;;;;;;;14.32;5.95;;;;;;;12.16;71.26;100405.94;5053341;28;20036;-85
2023/05/03 00:19:18;;;;;;;11.63;5.68;;;;;;;12.27;71.21;100421.19;5051996;28;20113;-85
2023/05/03 00:21:44;;;;;;;11.13;4.68;;;;;;;12.34;70.99;100429.59;5052164;28;20027;-85
2023/05/03 00:24:09;;;;;;;10.32;5.68;;;;;;;12.38;71.00;100441.59;5053390;28;20539;-85
2023/05/03 00:26:34;;;;;;;13.13;5.78;;;;;;;12.35;70.64;100446.97;5051371;28;20447;-85
2023/05/03 00:29:00;;;;;;;11.88;5.55;;;;;;;12.28;70.67;100432.47;5051665;28;20053;-86
2023/05/03 00:31:25;;;;;;;10.00;5.05;;;;;;;12.19;70.91;100416.25;5051579;28;20028;-85
2023/05/03 00:33:50;;;;;;;11.00;6.05;;;;;;;12.15;70.99;100412.06;5051912;28;20021;-86
2023/05/03 00:36:16;;;;;;;10.50;5.13;;;;;;;12.05;70.97;100399.44;5053019;28;20025;-86
2023/05/03 00:38:41;;;;;;;11.45;5.32;;;;;;;12.29;71.10;100444.59;5053118;28;20025;-86
2023/05/03 00:41:09;;;;;;;12.98;5.65;;;;;;;12.06;70.69;100396.78;5051713;28;20025;-85
2023/05/03 00:43:35;;;;;;;11.75;5.70;;;;;;;12.40;70.79;100451.09;5051289;28;20476;-85
2023/05/03 00:46:04;;;;;;;9.95;4.90;;;;;;;12.22;71.00;100446.63;5051628;28;20025;-86
2023/05/03 00:48:29;;;;;;;13.00;5.78;;;;;;;12.28;70.89;100453.38;5052968;28;20036;-86
2023/05/03 00:50:57;;;;;;;10.07;4.97;;;;;;;12.23;70.57;100443.09;5051679;28;20025;-86
2023/05/03 00:53:23;;;;;;;11.80;5.20;;;;;;;12.08;70.57;100426.28;5051206;28;20128;-86
2023/05/03 00:55:52;;;;;;;13.07;5.50;;;;;;;11.97;70.84;100405.84;5052758;28;20067;-85
2023/05/03 00:58:17;;;;;;;11.27;5.50;;;;;;;12.17;70.53;100436.34;5051152;28;20131;-85
2023/05/03 01:00:43;;;;;;;7.97;4.97;;;;;;;12.18;70.86;100452.91;5051552;28;20531;-85
2023/05/03 01:03:08;;;;;;;11.43;4.85;;;;;;;12.12;70.74;100433.09;5051459;28;20025;-85
2023/05/03 01:05:45;;;;;;;11.77;5.13;;;;;;;12.15;70.64;100455.63;5051104;28;20032;-85
2023/05/03 01:08:35;;;;;;;11.90;5.43;;;;;;;12.15;70.67;100448.63;5052538;28;20488;-85
2023/05/03 01:11:07;;;;;;;10.82;5.40;;;;;;;12.11;70.78;100451.44;5049666;28;20037;-85
2023/05/03 01:13:38;;;;;;;11.40;6.05;;;;;;;12.12;70.61;100464.41;5032971;28;20037;-85
2023/05/03 01:16:25;;;;;;;10.23;4.55;;;;;;;12.08;70.80;100462.00;5033228;28;20033;-85
2023/05/03 01:18:53;;;;;;;8.30;4.70;;;;;;;11.93;70.85;100448.66;5033462;28;20071;-85
2023/05/03 01:21:21;;;;;;;11.00;6.00;;;;;;;12.01;71.26;100458.78;5049560;28;20551;-85
2023/05/03 01:24:05;;;;;;;8.52;5.40;;;;;;;11.98;71.18;100469.34;5049830;28;20064;-85
2023/05/03 01:26:32;;;;;;;9.23;5.72;;;;;;;11.85;71.34;100450.72;5049395;28;20040;-85
2023/05/03 01:28:59;;;;;;;10.02;5.43;;;;;;;11.77;71.01;100444.91;5049504;28;20041;-84
2023/05/03 01:31:30;;;;;;;9.52;5.47;;;;;;;11.84;70.90;100469.91;5032774;28;20041;-85
2023/05/03 01:34:04;;;;;;;10.15;4.88;;;;;;;11.70;71.30;100477.34;5032800;28;20504;-85
2023/05/03 01:36:33;;;;;;;8.85;4.68;;;;;;;11.57;71.31;100474.34;5032597;28;20112;-85
2023/05/03 01:39:19;;;;;;;7.20;4.57;;;;;;;11.43;71.41;100482.69;5032130;28;20033;-85
2023/05/03 01:41:48;;;;;;;10.10;5.45;;;;;;;11.37;71.05;100480.31;5050413;28;20070;-85
2023/05/03 01:44:15;;;;;;;9.85;5.10;;;;;;;11.12;70.96;100456.88;5050568;28;20037;-85
2023/05/03 01:46:44;;;;;;;13.38;4.82;;;;;;;11.15;71.06;100485.44;5050583;28;20039;-85
2023/05/03 01:49:10;;;;;;;8.75;4.80;;;;;;;11.09;71.27;100483.06;5050668;28;20056;-85
2023/05/03 01:51:35;;;;;;;8.55;5.03;;;;;;;10.83;71.24;100449.22;5051709;28;20060;-86
2023/05/03 01:54:00;;;;;;;11.85;4.93;;;;;;;10.99;71.45;100486.88;5050504;28;20063;-85
2023/05/03 01:56:26;;;;;;;9.65;5.28;;;;;;;10.97;71.24;100486.94;5050209;28;20074;-85
2023/05/03 01:58:51;;;;;;;10.57;5.05;;;;;;;10.69;70.60;100445.34;5050403;28;20028;-85
2023/05/03 02:01:16;;;;;;;13.85;4.65;;;;;;;10.60;71.25;100457.84;5050622;28;20029;-85
2023/05/03 02:03:42;;;;;;;11.02;5.10;;;;;;;10.83;71.07;100499.63;5050355;28;20401;-85
2023/05/03 02:06:07;;;;;;;10.35;5.30;;;;;;;10.75;71.28;100491.22;5050509;28;20048;-85
2023/05/03 02:08:32;;;;;;;9.77;5.68;;;;;;;10.81;71.52;100509.22;5050196;28;20056;-85
2023/05/03 02:10:58;;;;;;;13.00;6.07;;;;;;;10.61;71.21;100477.78;5050212;28;20025;-85
2023/05/03 02:13:23;;;;;;;14.95;5.57;;;;;;;10.71;71.28;100498.28;5050143;28;20032;-85
2023/05/03 02:15:48;;;;;;;8.77;5.50;;;;;;;10.63;71.27;100489.00;5050548;28;20029;-85
2023/05/03 02:18:15;;;;;;;12.48;5.65;;;;;;;10.56;71.38;100493.56;5050495;28;20029;-85
2023/05/03 02:20:44;;;;;;;11.45;6.15;;;;;;;10.59;71.72;100501.28;5050230;28;20021;-85
2023/05/03 02:23:09;;;;;;;13.68;5.80;;;;;;;10.61;71.59;100485.59;5050266;28;20025;-85
2023/05/03 02:25:34;;;;;;;13.68;5.63;;;;;;;10.57;71.31;100499.63;5050007;28;20075;-85
2023/05/03 02:28:00;;;;;;;9.88;5.32;;;;;;;10.55;71.89;100504.03;5051286;28;20045;-85
2023/05/03 02:30:25;;;;;;;13.07;5.22;;;;;;;10.30;71.78;100491.81;5050107;28;20021;-85
2023/05/03 02:32:51;;;;;;;10.45;5.75;;;;;;;10.35;71.92;100499.47;5050356;28;20036;-85
2023/05/03 02:35:16;;;;;;;12.13;6.20;;;;;;;10.31;72.15;100500.47;5050154;28;20100;-85
2023/05/03 02:37:41;;;;;;;10.18;5.70;;;;;;;10.20;72.51;100504.25;5049955;28;20029;-85
2023/05/03 02:40:08;;;;;;;9.80;5.65;;;;;;;10.17;72.36;100506.94;5051492;28;20052;-85
2023/05/03 02:42:34;;;;;;;9.90;5.03;;;;;;;9.89;72.60;100467.88;5049584;28;20025;-86
2023/05/03 02:44:59;;;;;;;11.60;5.63;;;;;;;9.82;72.81;100482.00;5050239;28;20024;-85
2023/05/03 02:47:25;;;;;;;11.38;5.75;;;;;;;9.96;72.98;100511.06;5049943;28;20121;-85
2023/05/03 02:49:50;;;;;;;9.02;5.30;;;;;;;9.78;73.02;100480.41;5050895;28;20422;-85
2023/05/03 02:52:15;;;;;;;13.32;5.65;;;;;;;9.81;73.16;100500.25;5055128;28;20024;-86
2023/05/03 02:54:41;;;;;;;9.32;4.68;;;;;;;9.71;73.56;100500.53;5053466;28;20025;-85
2023/05/03 02:57:06;;;;;;;11.25;5.28;;;;;;;9.74;73.80;100510.84;5053570;28;20029;-85
2023/05/03 02:59:31;;;;;;;13.50;6.00;;;;;;;9.66;73.78;100501.56;5053605;28;20487;-85
2023/05/03 03:01:57;;;;;;;12.23;5.75;;;;;;;9.49;73.94;100476.91;5055358;28;20025;-85
2023/05/03 03:04:23;;;;;;;12.50;6.80;;;;;;;9.56;73.84;100492.31;5053674;28;20074;-85
2023/05/03 03:06:48;;;;;;;15.85;7.28;;;;;;;9.61;74.20;100501.69;5054658;28;20111;-85
2023/05/03 03:09:13;;;;;;;9.32;5.85;;;;;;;9.45;74.39;100483.06;5054817;28;20476;-85
2023/05/03 03:11:40;;;;;;;10.88;5.70;;;;;;;9.72;74.23;100515.22;5053072;28;20373;-85
2023/05/03 03:14:05;;;;;;;11.13;5.60;;;;;;;9.75;73.99;100509.94;5053426;28;20021;-85
2023/05/03 03:16:30;;;;;;;13.60;5.82;;;;;;;9.65;73.95;100494.63;5053275;28;20083;-85
2023/05/03 03:18:56;;;;;;;11.18;6.15;;;;;;;9.80;73.71;100524.56;5053361;28;20025;-85
2023/05/03 03:21:21;;;;;;;9.32;5.22;;;;;;;9.75;73.79;100522.09;5054579;28;20029;-85
2023/05/03 03:23:47;;;;;;;10.13;5.88;;;;;;;9.66;73.96;100525.81;5054635;28;20536;-85
2023/05/03 03:26:12;;;;;;;10.68;6.47;;;;;;;9.61;73.82;100513.84;5054442;28;20377;-85
2023/05/03 03:28:37;;;;;;;10.90;5.30;;;;;;;9.66;73.87;100528.41;5052738;28;20049;-85
2023/05/03 03:31:03;;;;;;;12.50;5.10;;;;;;;9.52;74.08;100527.94;5053237;28;20123;-85
2023/05/03 03:33:28;;;;;;;12.30;5.88;;;;;;;9.42;74.51;100523.91;5052919;28;20380;-85
2023/05/03 03:35:53;;;;;;;12.02;5.82;;;;;;;9.39;74.52;100530.03;5052953;28;20383;-85
2023/05/03 03:38:19;;;;;;;17.92;6.50;;;;;;;9.37;74.52;100526.63;5054274;28;20071;-85
2023/05/03 03:40:44;;;;;;;14.63;6.22;;;;;;;9.27;74.43;100516.53;5052569;28;20025;-85
2023/05/03 03:43:10;;;;;;;11.95;6.05;;;;;;;9.20;74.69;100514.09;5052669;28;20032;-86
2023/05/03 03:45:35;;;;;;;9.23;5.85;;;;;;;9.03;75.03;100494.66;5053825;28;20108;-85
2023/05/03 03:48:00;;;;;;;12.85;5.43;;;;;;;9.17;75.14;100528.94;5052928;28;20039;-85
2023/05/03 03:50:26;;;;;;;11.63;5.78;;;;;;;9.23;74.87;100545.22;5052747;28;20025;-85
2023/05/03 03:52:51;;;;;;;16.63;7.40;;;;;;;9.15;75.09;100541.97;5052417;28;20029;-85
2023/05/03 03:55:17;;;;;;;13.75;5.93;;;;;;;9.04;74.97;100511.97;5052487;28;20503;-85
2023/05/03 03:57:42;;;;;;;10.98;6.18;;;;;;;9.17;75.24;100540.16;5052530;28;20040;-85
2023/05/03 04:00:09;;;;;;;10.90;5.55;;;;;;;9.18;74.93;100531.47;5052655;28;20029;-85
2023/05/03 04:02:34;;;;;;;9.95;6.47;;;;;;;9.29;75.24;100540.75;5052948;28;20389;-85
2023/05/03 04:04:59;;;;;;;14.40;6.80;;;;;;;9.42;74.94;100547.31;5052465;28;20033;-85
2023/05/03 04:07:25;;;;;;;9.48;5.57;;;;;;;9.47;74.20;100519.44;5052371;28;20032;-85
2023/05/03 04:09:50;;;;;;;13.73;6.03;;;;;;;9.58;73.91;100529.53;5052091;28;20017;-85
2023/05/03 04:12:15;;;;;;;14.68;5.68;;;;;;;9.88;73.42;100551.22;5052282;28;20104;-85
2023/05/03 04:14:41;;;;;;;8.68;6.00;;;;;;;10.08;72.49;100530.66;5052111;28;20053;-85
2023/05/03 04:17:06;;;;;;;8.95;5.65;;;;;;;10.40;71.38;100542.69;5053715;28;20029;-85
2023/05/03 04:19:31;;;;;;;11.98;5.55;;;;;;;10.60;70.14;100556.84;5052046;28;20048;-85
2023/05/03 04:21:57;;;;;;;7.93;5.63;;;;;;;10.61;69.98;100568.97;5052105;28;20115;-85
2023/05/03 04:24:22;;;;;;;11.73;5.43;;;;;;;10.51;70.20;100567.56;5052043;28;20124;-86
2023/05/03 04:26:50;;;;;;;13.10;5.40;;;;;;;10.44;69.94;100552.09;5052745;28;20380;-85
2023/05/03 04:29:16;;;;;;;9.32;5.30;;;;;;;10.83;69.28;100543.03;5053535;28;20033;-85
2023/05/03 04:31:42;;;;;;;12.15;5.60;;;;;;;11.75;67.70;100582.41;5051790;28;20029;-85
2023/05/03 04:34:09;;;;;;;14.02;5.57;;;;;;;12.15;66.04;100565.31;5053149;28;20021;-85
2023/05/03 04:36:34;;;;;;;9.25;5.07;;;;;;;12.75;64.96;100587.28;5051636;28;20033;-85
2023/05/03 04:39:00;;;;;;;9.15;5.22;;;;;;;12.92;63.12;100552.63;5051741;28;20519;-85
2023/05/03 04:41:25;;;;;;;9.45;5.18;;;;;;;12.80;62.76;100580.13;5053046;28;20036;-85
2023/05/03 04:43:52;;;;;;;11.35;5.60;;;;;;;12.43;63.38;100588.56;5052764;28;20025;-85
2023/05/03 04:46:17;;;;;;;9.40;4.97;;;;;;;12.04;64.18;100577.91;5053116;28;20033;-85
2023/05/03 04:48:44;;;;;;;10.30;5.63;;;;;;;11.89;64.64;100587.19;5052777;28;20121;-85
2023/05/03 04:51:09;;;;;;;11.13;5.15;;;;;;;11.88;64.79;100596.78;5051551;28;20388;-85
2023/05/03 04:53:35;;;;;;;11.52;5.60;;;;;;;11.81;65.39;100595.25;5051233;28;20025;-85
2023/05/03 04:56:00;;;;;;;9.90;5.28;;;;;;;11.46;65.55;100588.66;5051382;28;20060;-85
2023/05/03 04:58:25;;;;;;;9.88;5.57;;;;;;;11.39;65.98;100590.66;5051573;28;20021;-85
2023/05/03 05:00:51;;;;;;;9.35;5.47;;;;;;;11.29;66.37;100609.28;5051187;28;20029;-85
2023/05/03 05:03:16;;;;;;;9.60;5.68;;;;;;;11.26;65.96;100602.44;5051040;28;20480;-85
2023/05/03 05:05:41;;;;;;;12.18;5.47;;;;;;;11.32;66.01;100610.03;5051106;28;20083;-85
2023/05/03 05:08:07;;;;;;;7.82;5.30;;;;;;;11.32;65.80;100607.41;5052490;28;20036;-85
2023/05/03 05:10:37;;;;;;;11.27;5.85;;;;;;;11.36;66.26;100613.38;5051108;28;20032;-85
2023/05/03 05:13:02;;;;;;;12.45;5.50;;;;;;;11.57;64.85;100604.81;5051225;28;20107;-85
2023/05/03 05:15:27;;;;;;;9.15;4.93;;;;;;;11.59;64.90;100610.00;5052462;28;20074;-85
2023/05/03 05:17:53;;;;;;;12.30;5.50;;;;;;;11.73;64.97;100619.03;5050951;28;20025;-85
2023/05/03 05:20:18;;;;;;;7.38;4.75;;;;;;;11.83;64.77;100610.88;5051080;28;20028;-85
2023/05/03 05:22:43;;;;;;;10.48;5.63;;;;;;;11.98;64.15;100620.78;5052025;28;20431;-85
2023/05/03 05:25:09;;;;;;;12.77;5.88;;;;;;;11.90;63.87;100591.50;5050620;28;20036;-85
2023/05/03 05:27:35;;;;;;;9.02;5.18;;;;;;;12.32;62.96;100624.72;5050643;28;20049;-85
2023/05/03 05:30:00;;;;;;;13.57;5.25;;;;;;;12.33;62.00;100593.31;5050864;28;20500;-85
2023/05/03 05:32:26;;;;;;;10.60;5.40;;;;;;;13.08;61.07;100616.44;5052060;28;20033;-85
2023/05/03 05:34:54;;;;;;;10.93;5.68;;;;;;;13.44;59.99;100611.47;5050525;28;20365;-85
2023/05/03 05:37:22;;;;;;;9.98;6.05;;;;;;;13.56;59.41;100636.25;5050678;28;20028;-86
2023/05/03 05:39:48;;;;;;;6.82;4.85;;;;;;;13.25;59.82;100643.69;5051947;28;20032;-85
2023/05/03 05:42:13;;;;;;;8.25;5.53;;;;;;;13.41;60.44;100598.50;5051899;28;20048;-84
2023/05/03 05:44:38;;;;;;;11.00;5.57;;;;;;;14.55;57.82;100625.69;5051707;28;20025;-84
2023/05/03 05:47:05;;;;;;;8.18;5.05;;;;;;;15.53;55.43;100622.59;5051985;28;20041;-84
2023/05/03 05:49:31;;;;;;;10.52;5.05;;;;;;;16.60;53.14;100622.97;5051729;28;20495;-84
2023/05/03 05:51:56;;;;;;;9.43;5.10;;;;;;;18.04;50.45;100640.84;5051443;28;20029;-84
2023/05/03 05:54:21;;;;;;;13.05;5.35;;;;;;;19.31;48.10;100614.19;5052066;28;20108;-84
2023/05/03 05:56:47;;;;;;;10.50;5.30;;;;;;;19.73;46.30;100614.03;5051868;28;20068;-85
2023/05/03 05:59:12;;;;;;;6.32;4.47;;;;;;;19.54;46.99;100636.38;5051961;28;20025;-85
2023/05/03 06:01:40;;;;;;;10.10;5.22;;;;;;;19.41;47.21;100661.94;5051613;28;20036;-85
2023/05/03 06:04:07;;;;;;;8.23;4.78;;;;;;;18.88;48.02;100651.34;5050488;28;20021;-85
2023/05/03 06:06:32;;;;;;;7.28;4.70;;;;;;;19.07;48.30;100632.50;5051567;28;20053;-85
2023/05/03 06:08:57;;;;;;;9.40;5.55;;;;;;;19.95;46.90;100667.09;5051515;28;20083;-84
2023/05/03 06:11:23;;;;;;;9.13;5.05;;;;;;;20.86;45.77;100649.09;5051540;28;20052;-85
2023/05/03 06:13:48;;;;;;;8.98;4.90;;;;;;;21.29;44.29;100655.66;5051567;28;20025;-84
2023/05/03 06:16:13;;;;;;;7.40;4.53;;;;;;;21.26;43.98;100666.47;5051758;28;20040;-84
2023/05/03 06:18:39;;;;;;;5.97;4.15;;;;;;;21.24;45.10;100674.56;5050156;28;20032;-84
2023/05/03 06:21:04;;;;;;;7.28;4.30;;;;;;;21.33;44.12;100651.84;5051548;28;20032;-85
2023/05/03 06:23:29;;;;;;;7.53;4.88;;;;;;;21.60;42.86;100648.88;5051775;28;20052;-84
2023/05/03 06:25:55;;;;;;;7.70;4.15;;;;;;;22.52;41.35;100658.44;5054106;28;20028;-85
2023/05/03 06:28:20;;;;;;;8.98;4.65;;;;;;;23.46;40.71;100648.09;5055558;28;20480;-84
2023/05/03 06:30:49;;;;;;;8.43;4.45;;;;;;;24.45;39.13;100663.47;5055322;28;20053;-85
2023/05/03 06:33:14;;;;;;;6.78;4.15;;;;;;;25.45;37.50;100668.59;5055474;28;20043;-85
2023/05/03 06:35:40;;;;;;;7.05;4.05;;;;;;;26.41;36.67;100650.56;5054995;28;20032;-85
2023/05/03 06:38:05;;;;;;;4.78;3.85;;;;;;;27.74;35.70;100673.91;5055303;28;20087;-85
2023/05/03 06:40:31;;;;;;;6.53;4.07;;;;;;;28.30;34.75;100672.50;5055473;28;20036;-84
2023/05/03 06:42:56;;;;;;;8.57;3.88;;;;;;;27.98;35.20;100678.53;5054994;28;20029;-85
2023/05/03 06:45:22;;;;;;;6.18;4.35;;;;;;;28.44;34.94;100668.41;5055312;28;20036;-86
2023/05/03 06:47:48;;;;;;;8.20;4.13;;;;;;;29.73;33.12;100672.22;5054967;28;20111;-86
2023/05/03 06:50:14;;;;;;;8.32;4.47;;;;;;;30.94;31.37;100665.69;5055057;28;20033;-86
2023/05/03 06:52:40;;;;;;;7.65;4.78;;;;;;;32.29;30.52;100680.88;5054928;28;20032;-86
2023/05/03 06:55:07;;;;;;;9.20;4.13;;;;;;;32.94;30.38;100660.28;5054251;28;20047;-87
2023/05/03 06:57:32;;;;;;;8.10;3.67;;;;;;;32.40;29.16;100673.34;5046777;28;20041;-87
2023/05/03 06:59:58;;;;;;;6.65;3.83;;;;;;;30.59;30.75;100665.19;5054640;28;20159;-87
2023/05/03 07:02:25;;;;;;;6.50;3.90;;;;;;;28.71;31.98;100665.47;5054898;28;20025;-87
2023/05/03 07:04:50;;;;;;;9.98;4.63;;;;;;;27.70;33.51;100681.38;5052956;28;20025;-87
2023/05/03 07:07:16;;;;;;;7.43;4.03;;;;;;;27.19;33.98;100663.44;5054576;28;20037;-87
2023/05/03 07:09:41;;;;;;;5.82;3.83;;;;;;;27.05;33.91;100672.78;5055019;28;20025;-87
2023/05/03 07:12:07;;;;;;;7.93;3.80;;;;;;;27.99;33.22;100677.56;5053643;28;20025;-87
2023/05/03 07:14:32;;;;;;;5.18;3.13;;;;;;;28.66;32.41;100675.03;5054576;28;20117;-87
2023/05/03 07:16:57;;;;;;;5.25;3.38;;;;;;;29.09;31.40;100655.16;5054504;28;20384;-86
2023/05/03 07:19:22;;;;;;;5.72;3.50;;;;;;;30.44;30.62;100646.31;5054562;28;20442;-87
2023/05/03 07:21:48;;;;;;;6.78;3.47;;;;;;;33.19;28.96;100666.13;5054226;28;20406;-87
2023/05/03 07:24:13;;;;;;;6.05;2.90;;;;;;;35.21;26.50;100672.13;5054663;28;20397;-87
2023/05/03 07:26:38;;;;;;;7.65;3.33;;;;;;;36.06;25.54;100658.69;5054406;28;20040;-87
2023/05/03 07:29:04;;;;;;;7.68;3.30;;;;;;;34.53;26.10;100671.38;5054256;28;20405;-88
2023/05/03 07:31:30;;;;;;;5.38;3.15;;;;;;;31.38;27.78;100656.94;5054395;28;20543;-87
2023/05/03 07:33:55;;;;;;;5.22;3.05;;;;;;;30.20;29.72;100668.75;5052713;28;20087;-87
2023/05/03 07:36:20;;;;;;;8.25;3.10;;;;;;;28.45;30.15;100657.53;5051709;28;20519;-88
2023/05/03 07:38:46;;;;;;;6.75;3.55;;;;;;;26.37;31.88;100651.84;5052922;28;20408;-87
2023/05/03 07:41:11;;;;;;;8.45;2.85;;;;;;;25.49;33.56;100671.81;5054177;28;20021;-87
2023/05/03 07:43:36;;;;;;;5.57;3.20;;;;;;;26.53;32.75;100656.59;5052623;28;20025;-86
2023/05/03 07:46:02;;;;;;;7.85;3.88;;;;;;;29.03;30.71;100623.63;5053751;28;20037;-86
2023/05/03 07:48:27;;;;;;;8.10;4.18;;;;;;;30.71;29.64;100663.78;5053993;28;20465;-87
2023/05/03 07:50:53;;;;;;;7.13;3.33;;;;;;;29.45;29.90;100657.47;5053704;28;20037;-87
2023/05/03 07:53:18;;;;;;;5.47;3.40;;;;;;;27.27;31.63;100679.56;5052876;28;20032;-88
2023/05/03 07:55:43;;;;;;;5.57;3.05;;;;;;;25.10;34.13;100675.34;5052722;28;20527;-87
2023/05/03 07:58:09;;;;;;;5.32;3.25;;;;;;;23.47;35.67;100686.97;5052662;28;20025;-88
2023/05/03 08:00:34;;;;;;;6.25;3.42;;;;;;;22.21;37.01;100685.75;5053718;28;20476;-88
2023/05/03 08:03:02;;;;;;;7.65;3.67;;;;;;;21.47;38.35;100683.44;5035697;28;20037;-87
2023/05/03 08:05:28;;;;;;;7.18;3.78;;;;;;;20.52;39.41;100648.09;5035110;28;20029;-87
2023/05/03 08:07:53;;;;;;;6.55;3.55;;;;;;;20.05;40.49;100668.13;5052188;28;20040;-87
2023/05/03 08:10:18;;;;;;;5.28;3.75;;;;;;;19.74;41.57;100679.13;5052401;28;20032;-87
2023/05/03 08:12:44;;;;;;;7.50;3.78;;;;;;;19.64;41.94;100677.13;5053538;28;20061;-86
2023/05/03 08:15:10;;;;;;;9.02;4.22;;;;;;;19.88;41.31;100665.81;5051749;28;20067;-86
2023/05/03 08:17:43;;;;;;;8.57;4.63;;;;;;;19.87;41.60;100677.34;5051930;28;20021;-86
2023/05/03 08:20:10;;;;;;;5.82;3.42;;;;;;;19.32;41.59;100676.63;5050073;28;20512;-86
2023/05/03 08:22:36;;;;;;;7.50;3.60;;;;;;;18.89;41.55;100683.88;5041934;28;20036;-86
2023/05/03 08:25:03;;;;;;;7.15;4.03;;;;;;;18.55;42.48;100666.69;5041949;28;20119;-86
2023/05/03 08:27:29;;;;;;;5.38;3.67;;;;;;;18.41;43.41;100665.78;5041873;28;20125;-86
2023/05/03 08:29:54;;;;;;;9.63;3.72;;;;;;;19.02;44.05;100665.44;5040374;28;20116;-86
2023/05/03 08:32:21;;;;;;;19.88;16.20;;;;;;;19.01;40.91;100656.69;5044930;28;20033;-86
2023/05/03 08:34:48;;;;;;;9.82;6.93;;;;;;;18.87;41.83;100662.84;5042078;28;20040;-86
2023/05/03 08:37:13;;;;;;;18.30;11.63;;;;;;;18.58;40.93;100684.94;5042336;28;20025;-86
2023/05/03 08:39:38;;;;;;;18.85;12.98;;;;;;;18.06;41.83;100675.88;5041367;28;20117;-86
2023/05/03 08:42:07;;;;;;;22.40;15.00;;;;;;;17.82;41.98;100680.00;5040472;28;20025;-86
2023/05/03 08:44:38;;;;;;;21.50;16.33;;;;;;;17.58;43.05;100690.19;5041602;28;20469;-86
2023/05/03 08:47:05;;;;;;;7.78;5.80;;;;;;;17.24;43.12;100675.53;5040715;28;20400;-86
2023/05/03 08:49:33;;;;;;;15.43;11.32;;;;;;;17.21;43.87;100703.72;5042030;28;20086;-86
2023/05/03 08:52:00;;;;;;;31.25;15.57;;;;;;;16.88;43.79;100668.78;5040809;28;20021;-86
2023/05/03 08:54:26;;;;;;;27.75;14.00;;;;;;;16.82;44.49;100692.81;5040214;28;20051;-86
2023/05/03 08:56:51;;;;;;;10.82;4.55;;;;;;;16.64;44.66;100658.69;5041660;28;20032;-86
2023/05/03 08:59:17;;;;;;;5.30;3.33;;;;;;;17.00;43.88;100690.94;5040631;28;20029;-86
2023/05/03 09:01:43;;;;;;;28.58;16.83;;;;;;;17.32;43.81;100675.91;5040476;28;20029;-86
2023/05/03 09:04:12;;;;;;;20.50;8.75;;;;;;;17.61;43.18;100682.97;5043093;28;20036;-86
2023/05/03 09:06:37;;;;;;;14.43;5.63;;;;;;;17.87;43.80;100677.94;5040685;28;20014;-86
2023/05/03 09:09:07;;;;;;;8.82;4.25;;;;;;;17.76;42.45;100649.59;5040240;28;20439;-86
2023/05/03 09:11:34;;;;;;;11.60;5.57;;;;;;;17.94;42.75;100698.53;5043032;28;20518;-86
2023/05/03 09:14:11;;;;;;;24.05;9.52;;;;;;;17.79;42.21;100688.09;5041702;28;20024;-85
2023/05/03 09:16:38;;;;;;;33.53;12.75;;;;;;;17.56;42.38;100697.31;5037862;28;20049;-86
2023/05/03 09:19:08;;;;;;;10.77;4.93;;;;;;;16.93;42.24;100643.03;5032258;28;20030;-86
2023/05/03 09:21:34;;;;;;;7.10;4.03;;;;;;;17.10;43.27;100645.56;5047915;28;20143;-86
2023/05/03 09:24:00;;;;;;;8.10;3.72;;;;;;;17.59;43.25;100679.56;5050713;28;20489;-86
2023/05/03 09:26:35;;;;;;;35.60;20.45;;;;;;;17.54;42.11;100642.13;5052224;28;20028;-86
2023/05/03 09:29:04;;;;;;;32.35;15.52;;;;;;;17.43;42.28;100684.88;5050346;28;20083;-86
2023/05/03 09:31:31;;;;;;;12.38;5.85;;;;;;;17.28;42.65;100679.69;5050855;28;20112;-85
2023/05/03 09:33:57;;;;;;;6.05;3.35;;;;;;;17.15;43.50;100664.59;5050421;28;20066;-85
2023/05/03 09:36:24;;;;;;;5.82;3.65;;;;;;;17.45;43.40;100683.00;5050670;28;20063;-85
2023/05/03 09:38:51;;;;;;;6.90;4.00;;;;;;;17.52;43.80;100675.59;5050674;28;20033;-86
2023/05/03 09:41:36;;;;;;;15.50;6.80;;;;;;;17.66;43.01;100698.50;5051825;28;20021;-86
2023/05/03 09:44:02;;;;;;;14.60;6.78;;;;;;;17.26;43.00;100655.22;5049997;28;20044;-85
2023/05/03 09:46:29;;;;;;;5.93;4.03;;;;;;;16.99;42.98;100644.50;5052038;28;20380;-86
2023/05/03 09:48:56;;;;;;;14.48;6.70;;;;;;;17.09;43.13;100687.78;5050563;28;20231;-85
2023/05/03 09:51:22;;;;;;;7.63;3.72;;;;;;;16.94;43.80;100678.97;5050626;28;20040;-85
2023/05/03 09:53:48;;;;;;;6.18;3.70;;;;;;;16.64;43.62;100687.63;5050415;28;20036;-85
2023/05/03 09:56:15;;;;;;;4.47;3.15;;;;;;;16.44;43.91;100695.75;5050433;28;20098;-86
2023/05/03 09:58:42;;;;;;;10.18;5.25;;;;;;;16.09;44.01;100689.72;5050620;28;20056;-86
2023/05/03 10:01:08;;;;;;;20.15;8.43;;;;;;;15.78;44.88;100675.56;5050943;28;20028;-85
2023/05/03 10:03:43;;;;;;;14.45;6.63;;;;;;;15.60;44.72;100660.75;5051665;28;20419;-85
2023/05/03 10:06:32;;;;;;;9.57;4.47;;;;;;;15.63;44.08;100679.81;5050160;28;20029;-85
2023/05/03 10:08:58;;;;;;;9.02;4.63;;;;;;;15.61;44.23;100678.19;5051545;28;20036;-86
2023/05/03 10:11:26;;;;;;;7.50;3.80;;;;;;;15.55;44.10;100675.84;5050921;28;20029;-85
2023/05/03 10:13:52;;;;;;;7.05;3.65;;;;;;;15.42;43.82;100671.25;5050477;28;20531;-86
2023/05/03 10:16:26;;;;;;;7.72;2.80;;;;;;;14.91;44.38;100636.16;5051405;28;20029;-86
2023/05/03 10:19:05;;;;;;;13.48;8.05;;;;;;;15.06;45.19;100670.44;5050166;28;20032;-85
2023/05/03 10:21:55;;;;;;;7.95;4.45;;;;;;;15.16;45.64;100669.06;5050439;28;20078;-86
2023/05/03 10:24:21;;;;;;;12.38;6.75;;;;;;;15.47;45.40;100674.50;5051726;28;20029;-86
2023/05/03 10:26:49;;;;;;;6.82;4.07;;;;;;;15.58;45.54;100660.81;5050107;28;20499;-85
2023/05/03 10:29:50;;;;;;;20.48;12.18;;;;;;;15.85;45.96;100658.56;5050406;28;20067;-87
2023/05/03 10:32:38;;;;;;;6.82;3.45;;;;;;;16.20;44.41;100663.72;5032245;28;20037;-86
2023/05/03 10:35:09;;;;;;;18.20;7.47;;;;;;;16.23;43.83;100641.69;5032369;28;20052;-87
2023/05/03 10:37:35;;;;;;;18.80;9.63;;;;;;;16.21;44.71;100658.38;5032656;28;20036;-86
2023/05/03 10:40:17;;;;;;;12.50;6.40;;;;;;;16.36;44.44;100654.09;5048779;28;20110;-86
2023/05/03 10:42:48;;;;;;;;;;;;;;;16.17;43.81;100663.88;5049294;28;20060;-86
2023/05/03 10:45:25;;;;;;;7.70;3.88;;;;;;;16.02;44.11;100659.47;5032060;28;20004;-87
2023/05/03 10:48:11;;;;;;;14.77;5.82;;;;;;;16.01;43.79;100663.84;5032120;28;20035;-87
2023/05/03 10:50:40;;;;;;;11.52;5.50;;;;;;;15.85;45.28;100658.56;5032310;28;20025;-87
2023/05/03 10:53:06;;;;;;;9.43;4.82;;;;;;;15.87;46.29;100625.19;5048640;28;20029;-87
2023/05/03 10:55:32;;;;;;;11.65;6.22;;;;;;;16.14;44.44;100656.19;5048706;28;20040;-87
2023/05/03 10:57:59;;;;;;;11.80;5.68;;;;;;;16.07;44.80;100657.44;5048786;28;20037;-87
2023/05/03 11:00:40;;;;;;;10.68;5.30;;;;;;;15.78;45.30;100653.72;5031027;28;20432;-87
2023/05/03 11:03:08;;;;;;;8.75;4.45;;;;;;;15.76;44.57;100671.31;5034503;28;20068;-87
2023/05/03 11:05:35;;;;;;;4.35;3.33;;;;;;;15.25;44.90;100625.75;5012328;28;20041;-87
2023/05/03 11:08:12;;;;;;;9.23;3.17;;;;;;;15.28;45.16;100662.38;5028904;28;20034;-87
2023/05/03 11:10:38;;;;;;;5.47;3.45;;;;;;;15.18;45.51;100644.47;5030328;28;20460;-87
2023/05/03 11:13:05;;;;;;;8.63;3.38;;;;;;;15.03;46.01;100644.34;5033532;28;20040;-87
2023/05/03 11:15:31;;;;;;;6.93;3.33;;;;;;;15.26;45.88;100664.22;5033608;28;20128;-87
2023/05/03 11:17:56;;;;;;;5.30;3.13;;;;;;;15.15;45.64;100657.72;5033576;28;20460;-87
2023/05/03 11:20:22;;;;;;;10.32;5.07;;;;;;;15.11;46.30;100657.94;5033480;28;20026;-87
2023/05/03 11:22:48;;;;;;;6.30;3.70;;;;;;;15.10;45.76;100651.00;5033271;28;20036;-87